createdAt,value
2016-04-05T00:00:11.902Z,0
2016-04-05T00:01:11.921Z,0
2016-04-05T00:02:11.876Z,0
2016-04-05T00:03:11.879Z,0
2016-04-05T00:04:11.882Z,0
2016-04-05T00:05:11.994Z,0
2016-04-05T00:06:11.887Z,0
2016-04-05T00:07:11.922Z,0
2016-04-05T00:08:11.877Z,0
2016-04-05T00:09:11.880Z,0
2016-04-05T00:10:11.960Z,0
2016-04-05T00:11:11.885Z,0
2016-04-05T00:12:11.919Z,0
2016-04-05T00:13:11.890Z,0
2016-04-05T00:14:11.909Z,0
2016-04-05T00:15:11.942Z,0
2016-04-05T00:16:11.929Z,0
2016-04-05T00:17:11.979Z,0
2016-04-05T00:18:11.887Z,0
2016-04-05T00:19:11.891Z,0
2016-04-05T00:20:11.987Z,0
2016-04-05T00:21:11.740Z,0
2016-04-05T00:22:11.915Z,0
2016-04-05T00:23:11.933Z,0
2016-04-05T00:24:11.920Z,0
2016-04-05T00:25:11.969Z,0
2016-04-05T00:26:12.066Z,0
2016-04-05T00:27:11.912Z,0
2016-04-05T00:28:11.900Z,0
2016-04-05T00:29:11.934Z,0
2016-04-05T00:30:11.983Z,0
2016-04-05T00:31:11.923Z,0
2016-04-05T00:32:11.911Z,0
2016-04-05T00:33:11.883Z,0
2016-04-05T00:34:11.931Z,0
2016-04-05T00:35:12.013Z,0
2016-04-05T00:36:11.921Z,0
2016-04-05T00:37:11.924Z,0
2016-04-05T00:38:11.910Z,0
2016-04-05T00:39:11.898Z,0
2016-04-05T00:40:12.041Z,0
2016-04-05T00:41:11.904Z,0
2016-04-05T00:42:11.938Z,0
2016-04-05T00:43:11.893Z,0
2016-04-05T00:44:11.912Z,0
2016-04-05T00:45:11.976Z,0
2016-04-05T00:46:11.917Z,0
2016-04-05T00:47:11.920Z,0
2016-04-05T00:48:11.968Z,0
2016-04-05T00:49:11.909Z,0
2016-04-05T00:50:11.989Z,0
2016-04-05T00:51:11.914Z,0
2016-04-05T00:52:11.933Z,0
2016-04-05T00:53:11.919Z,0
2016-04-05T00:54:11.923Z,0
2016-04-05T00:55:11.941Z,0
2016-04-05T00:56:11.928Z,0
2016-04-05T00:57:11.931Z,0
2016-04-05T00:58:11.902Z,0
2016-04-05T00:59:11.920Z,0
2016-04-05T01:00:11.954Z,0
2016-04-05T01:01:11.941Z,0
2016-04-05T01:02:11.944Z,0
2016-04-05T01:03:11.947Z,0
2016-04-05T01:04:11.919Z,0
2016-04-05T01:05:11.969Z,0
2016-04-05T01:06:12.033Z,0
2016-04-05T01:07:11.911Z,0
2016-04-05T01:08:11.960Z,0
2016-04-05T01:09:11.916Z,0
2016-04-05T01:10:11.950Z,0
2016-04-05T01:11:11.937Z,0
2016-04-05T01:12:11.940Z,0
2016-04-05T01:13:11.926Z,0
2016-04-05T01:14:11.913Z,0
2016-04-05T01:15:11.948Z,0
2016-04-05T01:16:11.950Z,0
2016-04-05T01:17:11.953Z,0
2016-04-05T01:18:11.940Z,0
2016-04-05T01:19:11.959Z,0
2016-04-05T01:20:12.024Z,0
2016-04-05T01:21:11.948Z,0
2016-04-05T01:22:11.951Z,0
2016-04-05T01:23:11.953Z,0
2016-04-05T01:24:11.940Z,0
2016-04-05T01:25:11.990Z,0
2016-04-05T01:26:11.930Z,0
2016-04-05T01:27:11.933Z,0
2016-04-05T01:28:11.951Z,0
2016-04-05T01:29:11.922Z,0
2016-04-05T01:30:11.988Z,0
2016-04-05T01:31:11.975Z,0
2016-04-05T01:32:11.947Z,0
2016-04-05T01:33:11.950Z,0
2016-04-05T01:34:11.983Z,0
2016-04-05T01:35:11.986Z,0
2016-04-05T01:36:11.926Z,0
2016-04-05T01:37:11.960Z,0
2016-04-05T01:38:11.947Z,0
2016-04-05T01:39:11.965Z,0
2016-04-05T01:40:12.000Z,0
2016-04-05T01:41:11.971Z,0
2016-04-05T01:42:11.958Z,0
2016-04-05T01:43:11.930Z,0
2016-04-05T01:44:11.948Z,0
2016-04-05T01:45:12.044Z,0
2016-04-05T01:46:12.052Z,0
2016-04-05T01:47:11.827Z,0
2016-04-05T01:48:11.813Z,0
2016-04-05T01:49:12.113Z,0
2016-04-05T01:50:11.998Z,0
2016-04-05T01:51:11.812Z,0
2016-04-05T01:52:11.987Z,0
2016-04-05T01:53:11.974Z,0
2016-04-05T01:54:11.961Z,0
2016-04-05T01:55:11.965Z,0
2016-04-05T01:56:11.951Z,0
2016-04-05T01:57:11.939Z,0
2016-04-05T01:58:11.941Z,0
2016-04-05T01:59:11.944Z,0
2016-04-05T02:00:12.134Z,0
2016-04-05T02:01:11.934Z,0
2016-04-05T02:02:11.952Z,0
2016-04-05T02:03:11.955Z,0
2016-04-05T02:04:11.801Z,0
2016-04-05T02:05:12.023Z,0
2016-04-05T02:06:11.948Z,0
2016-04-05T02:07:11.950Z,0
2016-04-05T02:08:11.973Z,0
2016-04-05T02:09:11.945Z,0
2016-04-05T02:10:11.869Z,0
2016-04-05T02:11:11.997Z,0
2016-04-05T02:12:11.937Z,0
2016-04-05T02:13:11.924Z,0
2016-04-05T02:14:11.974Z,0
2016-04-05T02:15:11.976Z,0
2016-04-05T02:16:11.979Z,0
2016-04-05T02:17:11.950Z,0
2016-04-05T02:18:11.968Z,0
2016-04-05T02:19:11.956Z,0
2016-04-05T02:20:11.974Z,0
2016-04-05T02:21:11.962Z,0
2016-04-05T02:22:11.964Z,0
2016-04-05T02:23:11.967Z,0
2016-04-05T02:24:11.954Z,0
2016-04-05T02:25:12.034Z,0
2016-04-05T02:26:11.928Z,0
2016-04-05T02:27:11.930Z,0
2016-04-05T02:28:11.917Z,0
2016-04-05T02:29:11.967Z,0
2016-04-05T02:30:11.969Z,0
2016-04-05T02:31:11.926Z,0
2016-04-05T02:32:11.928Z,0
2016-04-05T02:33:11.947Z,0
2016-04-05T02:34:11.949Z,0
2016-04-05T02:35:11.999Z,0
2016-04-05T02:36:11.955Z,0
2016-04-05T02:37:11.942Z,0
2016-04-05T02:38:11.960Z,0
2016-04-05T02:39:11.916Z,0
2016-04-05T02:40:11.996Z,0
2016-04-05T02:41:11.983Z,0
2016-04-05T02:42:11.955Z,0
2016-04-05T02:43:11.941Z,0
2016-04-05T02:44:11.977Z,0
2016-04-05T02:45:11.931Z,0
2016-04-05T02:46:11.921Z,0
2016-04-05T02:47:11.926Z,0
2016-04-05T02:48:11.885Z,0
2016-04-05T02:49:11.922Z,0
2016-04-05T02:50:11.990Z,0
2016-04-05T02:51:11.864Z,0
2016-04-05T02:52:11.925Z,0
2016-04-05T02:53:11.845Z,0
2016-04-05T02:54:11.874Z,0
2016-04-05T02:55:11.967Z,0
2016-04-05T02:56:11.889Z,0
2016-04-05T02:57:11.859Z,0
2016-04-05T02:58:11.829Z,0
2016-04-05T02:59:11.846Z,0
2016-04-05T03:00:11.940Z,0
2016-04-05T03:01:11.849Z,0
2016-04-05T03:02:11.835Z,0
2016-04-05T03:03:11.884Z,0
2016-04-05T03:04:11.886Z,0
2016-04-05T03:05:11.903Z,0
2016-04-05T03:06:11.844Z,0
2016-04-05T03:07:11.862Z,0
2016-04-05T03:08:11.833Z,0
2016-04-05T03:09:11.821Z,0
2016-04-05T03:10:11.949Z,0
2016-04-05T03:11:11.842Z,0
2016-04-05T03:12:11.876Z,0
2016-04-05T03:13:11.847Z,0
2016-04-05T03:14:11.866Z,0
2016-04-05T03:15:11.946Z,0
2016-04-05T03:16:11.902Z,0
2016-04-05T03:17:11.936Z,0
2016-04-05T03:18:11.860Z,0
2016-04-05T03:19:11.848Z,0
2016-04-05T03:20:11.928Z,0
2016-04-05T03:21:11.900Z,0
2016-04-05T03:22:11.856Z,0
2016-04-05T03:23:11.734Z,0
2016-04-05T03:24:11.861Z,0
2016-04-05T03:25:11.957Z,0
2016-04-05T03:26:11.882Z,0
2016-04-05T03:27:11.838Z,0
2016-04-05T03:28:11.856Z,0
2016-04-05T03:29:11.890Z,0
2016-04-05T03:30:12.018Z,0
2016-04-05T03:31:11.849Z,0
2016-04-05T03:32:11.837Z,0
2016-04-05T03:33:11.823Z,0
2016-04-05T03:34:11.873Z,0
2016-04-05T03:35:11.892Z,0
2016-04-05T03:36:11.844Z,0
2016-04-05T03:37:11.894Z,0
2016-04-05T03:38:11.865Z,0
2016-04-05T03:39:11.915Z,0
2016-04-05T03:40:11.980Z,0
2016-04-05T03:41:11.858Z,0
2016-04-05T03:42:11.844Z,0
2016-04-05T03:43:11.894Z,0
2016-04-05T03:44:11.866Z,0
2016-04-05T03:45:11.713Z,0
2016-04-05T03:46:11.871Z,0
2016-04-05T03:47:11.874Z,0
2016-04-05T03:48:11.830Z,0
2016-04-05T03:49:11.833Z,0
2016-04-05T03:50:11.882Z,0
2016-04-05T03:51:11.901Z,0
2016-04-05T03:52:11.856Z,0
2016-04-05T03:53:11.859Z,0
2016-04-05T03:54:11.830Z,0
2016-04-05T03:55:11.927Z,0
2016-04-05T03:56:11.883Z,0
2016-04-05T03:57:11.854Z,0
2016-04-05T03:58:11.857Z,0
2016-04-05T03:59:11.859Z,0
2016-04-05T04:00:12.143Z,0
2016-04-05T04:01:11.817Z,0
2016-04-05T04:02:11.883Z,0
2016-04-05T04:03:11.870Z,0
2016-04-05T04:04:11.825Z,0
2016-04-05T04:05:11.875Z,0
2016-04-05T04:06:11.894Z,0
2016-04-05T04:07:11.865Z,0
2016-04-05T04:08:11.837Z,0
2016-04-05T04:09:11.870Z,0
2016-04-05T04:10:11.889Z,0
2016-04-05T04:11:11.861Z,0
2016-04-05T04:12:11.848Z,0
2016-04-05T04:13:11.866Z,0
2016-04-05T04:14:11.838Z,0
2016-04-05T04:15:12.293Z,0
2016-04-05T04:16:11.843Z,0
2016-04-05T04:17:11.846Z,0
2016-04-05T04:18:11.863Z,0
2016-04-05T04:19:11.866Z,0
2016-04-05T04:20:11.979Z,0
2016-04-05T04:21:11.871Z,0
2016-04-05T04:22:11.874Z,0
2016-04-05T04:23:11.861Z,0
2016-04-05T04:24:11.848Z,0
2016-04-05T04:25:11.945Z,0
2016-04-05T04:26:11.823Z,0
2016-04-05T04:27:11.888Z,0
2016-04-05T04:28:11.875Z,0
2016-04-05T04:29:11.846Z,0
2016-04-05T04:30:12.130Z,0
2016-04-05T04:31:11.867Z,0
2016-04-05T04:32:11.870Z,0
2016-04-05T04:33:11.857Z,0
2016-04-05T04:34:11.860Z,0
2016-04-05T04:35:11.940Z,0
2016-04-05T04:36:11.896Z,0
2016-04-05T04:37:11.868Z,0
2016-04-05T04:38:11.902Z,0
2016-04-05T04:39:11.858Z,0
2016-04-05T04:40:11.923Z,0
2016-04-05T04:41:11.691Z,0
2016-04-05T04:42:11.866Z,0
2016-04-05T04:43:11.869Z,0
2016-04-05T04:44:11.886Z,0
2016-04-05T04:45:11.999Z,0
2016-04-05T04:46:11.877Z,0
2016-04-05T04:47:11.848Z,0
2016-04-05T04:48:11.850Z,0
2016-04-05T04:49:11.885Z,5
2016-04-05T04:50:11.934Z,5
2016-04-05T04:51:11.858Z,5
2016-04-05T04:52:11.846Z,5
2016-04-05T04:53:11.863Z,5
2016-04-05T04:54:11.867Z,5
2016-04-05T04:55:11.916Z,5
2016-04-05T04:56:11.903Z,5
2016-04-05T04:57:11.875Z,10
2016-04-05T04:58:11.909Z,10
2016-04-05T04:59:11.865Z,10
2016-04-05T05:00:11.961Z,10
2016-04-05T05:01:11.870Z,15
2016-04-05T05:02:11.857Z,15
2016-04-05T05:03:11.890Z,15
2016-04-05T05:04:11.893Z,15
2016-04-05T05:05:11.912Z,20
2016-04-05T05:06:11.867Z,20
2016-04-05T05:07:11.870Z,20
2016-04-05T05:08:11.858Z,20
2016-04-05T05:09:11.892Z,20
2016-04-05T05:10:11.894Z,20
2016-04-05T05:11:11.881Z,25
2016-04-05T05:12:11.869Z,25
2016-04-05T05:13:11.855Z,25
2016-04-05T05:14:11.874Z,25
2016-04-05T05:15:11.877Z,25
2016-04-05T05:16:11.848Z,25
2016-04-05T05:17:11.897Z,25
2016-04-05T05:18:11.868Z,25
2016-04-05T05:19:11.888Z,30
2016-04-05T05:20:11.983Z,30
2016-04-05T05:21:11.892Z,30
2016-04-05T05:22:11.896Z,30
2016-04-05T05:23:11.882Z,35
2016-04-05T05:24:11.885Z,35
2016-04-05T05:25:11.950Z,35
2016-04-05T05:26:11.749Z,40
2016-04-05T05:27:11.909Z,45
2016-04-05T05:28:11.896Z,45
2016-04-05T05:29:11.899Z,50
2016-04-05T05:30:12.010Z,50
2016-04-05T05:31:11.873Z,50
2016-04-05T05:32:11.890Z,55
2016-04-05T05:33:11.893Z,60
2016-04-05T05:34:11.928Z,70
2016-04-05T05:35:11.789Z,75
2016-04-05T05:36:11.886Z,80
2016-04-05T05:37:11.889Z,85
2016-04-05T05:38:11.891Z,90
2016-04-05T05:39:11.926Z,95
2016-04-05T05:40:11.944Z,95
2016-04-05T05:41:11.899Z,100
2016-04-05T05:42:11.903Z,100
2016-04-05T05:43:11.920Z,105
2016-04-05T05:44:11.923Z,100
2016-04-05T05:45:11.926Z,100
2016-04-05T05:46:11.897Z,105
2016-04-05T05:47:11.916Z,105
2016-04-05T05:48:11.902Z,100
2016-04-05T05:49:11.936Z,105
2016-04-05T05:50:11.985Z,105
2016-04-05T05:51:11.941Z,105
2016-04-05T05:52:11.913Z,105
2016-04-05T05:53:11.900Z,105
2016-04-05T05:54:11.919Z,110
2016-04-05T05:55:11.952Z,105
2016-04-05T05:56:11.924Z,110
2016-04-05T05:57:11.974Z,105
2016-04-05T05:58:11.960Z,110
2016-04-05T05:59:11.916Z,110
2016-04-05T06:00:11.826Z,110
2016-04-05T06:01:11.938Z,110
2016-04-05T06:02:11.924Z,115
2016-04-05T06:03:11.942Z,115
2016-04-05T06:04:11.962Z,115
2016-04-05T06:05:12.089Z,115
2016-04-05T06:06:11.950Z,120
2016-04-05T06:07:11.923Z,120
2016-04-05T06:08:11.909Z,120
2016-04-05T06:09:11.959Z,120
2016-04-05T06:10:11.978Z,120
2016-04-05T06:11:11.933Z,120
2016-04-05T06:12:11.951Z,125
2016-04-05T06:13:11.939Z,125
2016-04-05T06:14:11.956Z,125
2016-04-05T06:15:11.991Z,125
2016-04-05T06:16:11.962Z,125
2016-04-05T06:17:11.949Z,125
2016-04-05T06:18:11.952Z,130
2016-04-05T06:19:11.986Z,130
2016-04-05T06:20:11.988Z,130
2016-04-05T06:21:11.960Z,130
2016-04-05T06:22:11.963Z,130
2016-04-05T06:23:11.966Z,135
2016-04-05T06:24:11.953Z,140
2016-04-05T06:25:12.049Z,145
2016-04-05T06:26:11.988Z,155
2016-04-05T06:27:12.024Z,160
2016-04-05T06:28:11.963Z,165
2016-04-05T06:29:11.981Z,165
2016-04-05T06:30:12.047Z,175
2016-04-05T06:31:11.971Z,185
2016-04-05T06:32:11.990Z,195
2016-04-05T06:33:12.007Z,195
2016-04-05T06:34:12.010Z,200
2016-04-05T06:35:12.045Z,210
2016-04-05T06:36:12.000Z,225
2016-04-05T06:37:11.987Z,225
2016-04-05T06:38:12.068Z,235
2016-04-05T06:39:12.009Z,240
2016-04-05T06:40:12.120Z,245
2016-04-05T06:41:11.873Z,245
2016-04-05T06:42:12.017Z,235
2016-04-05T06:43:12.050Z,215
2016-04-05T06:44:12.022Z,220
2016-04-05T06:45:12.150Z,220
2016-04-05T06:46:12.012Z,225
2016-04-05T06:47:12.077Z,220
2016-04-05T06:48:12.063Z,205
2016-04-05T06:49:12.067Z,205
2016-04-05T06:50:12.069Z,230
2016-04-05T06:51:12.056Z,230
2016-04-05T06:52:12.122Z,235
2016-04-05T06:53:12.061Z,240
2016-04-05T06:54:12.080Z,235
2016-04-05T06:55:12.161Z,245
2016-04-05T06:56:12.101Z,245
2016-04-05T06:57:12.088Z,235
2016-04-05T06:58:12.107Z,215
2016-04-05T06:59:12.109Z,225
2016-04-05T07:00:12.127Z,220
2016-04-05T07:01:12.146Z,230
2016-04-05T07:02:12.132Z,235
2016-04-05T07:03:12.135Z,245
2016-04-05T07:04:12.138Z,250
2016-04-05T07:05:12.218Z,250
2016-04-05T07:06:12.128Z,255
2016-04-05T07:07:12.162Z,230
2016-04-05T07:08:12.197Z,225
2016-04-05T07:09:12.184Z,235
2016-04-05T07:10:12.187Z,225
2016-04-05T07:11:12.143Z,220
2016-04-05T07:12:12.224Z,205
2016-04-05T07:13:12.195Z,195
2016-04-05T07:14:12.214Z,205
2016-04-05T07:15:12.310Z,215
2016-04-05T07:16:12.235Z,205
2016-04-05T07:17:12.238Z,200
2016-04-05T07:18:12.209Z,195
2016-04-05T07:19:12.227Z,215
2016-04-05T07:20:12.293Z,205
2016-04-05T07:21:12.264Z,210
2016-04-05T07:22:12.282Z,215
2016-04-05T07:23:12.238Z,195
2016-04-05T07:24:12.272Z,175
2016-04-05T07:25:12.321Z,180
2016-04-05T07:26:12.309Z,220
2016-04-05T07:27:12.279Z,230
2016-04-05T07:28:12.314Z,235
2016-04-05T07:29:12.301Z,250
2016-04-05T07:30:12.709Z,250
2016-04-05T07:31:12.307Z,235
2016-04-05T07:32:12.309Z,220
2016-04-05T07:33:12.342Z,270
2016-04-05T07:34:12.330Z,270
2016-04-05T07:35:12.379Z,260
2016-04-05T07:36:12.336Z,225
2016-04-05T07:37:12.353Z,250
2016-04-05T07:38:12.357Z,260
2016-04-05T07:39:12.359Z,275
2016-04-05T07:40:12.392Z,275
2016-04-05T07:41:12.364Z,290
2016-04-05T07:42:12.367Z,230
2016-04-05T07:43:11.620Z,275
2016-04-05T07:44:12.372Z,295
2016-04-05T07:45:12.453Z,285
2016-04-05T07:46:11.628Z,265
2016-04-05T07:47:12.380Z,265
2016-04-05T07:48:12.414Z,235
2016-04-05T07:49:12.433Z,220
2016-04-05T07:50:12.436Z,225
2016-04-05T07:51:12.454Z,220
2016-04-05T07:52:12.425Z,220
2016-04-05T07:53:12.428Z,240
2016-04-05T07:54:12.446Z,215
2016-04-05T07:55:12.480Z,210
2016-04-05T07:56:12.483Z,210
2016-04-05T07:57:12.454Z,220
2016-04-05T07:58:12.504Z,230
2016-04-05T07:59:12.460Z,240
2016-04-05T08:00:12.571Z,265
2016-04-05T08:01:12.434Z,235
2016-04-05T08:02:12.561Z,235
2016-04-05T08:03:12.580Z,265
2016-04-05T08:04:12.598Z,225
2016-04-05T08:05:12.507Z,220
2016-04-05T08:06:12.510Z,225
2016-04-05T08:07:12.512Z,235
2016-04-05T08:08:12.531Z,265
2016-04-05T08:09:12.534Z,265
2016-04-05T08:10:12.567Z,270
2016-04-05T08:11:11.789Z,265
2016-04-05T08:12:12.525Z,270
2016-04-05T08:13:12.576Z,290
2016-04-05T08:14:12.578Z,290
2016-04-05T08:15:12.612Z,270
2016-04-05T08:16:12.536Z,290
2016-04-05T08:17:12.555Z,300
2016-04-05T08:18:12.589Z,295
2016-04-05T08:19:12.607Z,300
2016-04-05T08:20:12.689Z,290
2016-04-05T08:21:12.613Z,290
2016-04-05T08:22:12.599Z,290
2016-04-05T08:23:12.618Z,270
2016-04-05T08:24:12.604Z,270
2016-04-05T08:25:12.624Z,240
2016-04-05T08:26:12.610Z,220
2016-04-05T08:27:12.644Z,220
2016-04-05T08:28:12.632Z,235
2016-04-05T08:29:12.665Z,240
2016-04-05T08:30:12.699Z,255
2016-04-05T08:31:12.640Z,275
2016-04-05T08:32:12.657Z,265
2016-04-05T08:33:12.660Z,255
2016-04-05T08:34:12.663Z,260
2016-04-05T08:35:12.651Z,260
2016-04-05T08:36:12.668Z,270
2016-04-05T08:37:12.703Z,275
2016-04-05T08:38:12.705Z,280
2016-04-05T08:39:12.692Z,300
2016-04-05T08:40:12.711Z,320
2016-04-05T08:41:12.728Z,310
2016-04-05T08:42:12.717Z,315
2016-04-05T08:43:12.734Z,315
2016-04-05T08:44:12.736Z,310
2016-04-05T08:45:12.724Z,310
2016-04-05T08:46:12.742Z,300
2016-04-05T08:47:12.761Z,300
2016-04-05T08:48:12.747Z,295
2016-04-05T08:49:12.751Z,280
2016-04-05T08:50:12.753Z,270
2016-04-05T08:51:12.787Z,260
2016-04-05T08:52:12.821Z,255
2016-04-05T08:53:12.776Z,255
2016-04-05T08:54:12.780Z,250
2016-04-05T08:55:12.813Z,250
2016-04-05T08:56:12.816Z,250
2016-04-05T08:57:12.850Z,255
2016-04-05T08:58:12.790Z,260
2016-04-05T08:59:12.840Z,265
2016-04-05T09:00:12.780Z,275
2016-04-05T09:01:12.829Z,285
2016-04-05T09:02:12.832Z,290
2016-04-05T09:03:12.851Z,295
2016-04-05T09:04:12.885Z,300
2016-04-05T09:05:12.856Z,300
2016-04-05T09:06:12.843Z,300
2016-04-05T09:07:12.845Z,305
2016-04-05T09:08:12.848Z,305
2016-04-05T09:09:12.867Z,305
2016-04-05T09:10:12.905Z,305
2016-04-05T09:11:12.878Z,310
2016-04-05T09:12:12.911Z,315
2016-04-05T09:13:12.883Z,315
2016-04-05T09:14:12.932Z,320
2016-04-05T09:15:12.903Z,320
2016-04-05T09:16:12.938Z,315
2016-04-05T09:17:12.940Z,315
2016-04-05T09:18:12.958Z,310
2016-04-05T09:19:12.946Z,305
2016-04-05T09:20:12.980Z,300
2016-04-05T09:21:12.966Z,295
2016-04-05T09:22:12.938Z,295
2016-04-05T09:23:12.941Z,300
2016-04-05T09:24:12.974Z,300
2016-04-05T09:25:12.977Z,305
2016-04-05T09:26:12.995Z,305
2016-04-05T09:27:12.968Z,310
2016-04-05T09:28:12.970Z,310
2016-04-05T09:29:12.988Z,310
2016-04-05T09:30:12.943Z,310
2016-04-05T09:31:12.962Z,320
2016-04-05T09:32:13.027Z,330
2016-04-05T09:33:13.014Z,335
2016-04-05T09:34:13.001Z,325
2016-04-05T09:35:12.989Z,325
2016-04-05T09:36:13.054Z,325
2016-04-05T09:37:13.041Z,315
2016-04-05T09:38:13.028Z,310
2016-04-05T09:39:13.234Z,350
2016-04-05T09:40:13.048Z,330
2016-04-05T09:41:13.114Z,315
2016-04-05T09:42:13.116Z,285
2016-04-05T09:43:13.057Z,270
2016-04-05T09:44:13.075Z,285
2016-04-05T09:45:13.093Z,280
2016-04-05T09:46:13.143Z,285
2016-04-05T09:47:13.067Z,290
2016-04-05T09:48:13.116Z,270
2016-04-05T09:49:13.119Z,305
2016-04-05T09:50:13.108Z,295
2016-04-05T09:51:13.157Z,265
2016-04-05T09:52:13.112Z,265
2016-04-05T09:53:13.147Z,295
2016-04-05T09:54:13.133Z,285
2016-04-05T09:55:13.183Z,295
2016-04-05T09:56:13.123Z,290
2016-04-05T09:57:13.173Z,280
2016-04-05T09:58:13.191Z,285
2016-04-05T09:59:13.193Z,265
2016-04-05T10:00:13.196Z,240
2016-04-05T10:01:13.276Z,250
2016-04-05T10:02:13.187Z,260
2016-04-05T10:03:13.173Z,265
2016-04-05T10:04:13.176Z,275
2016-04-05T10:05:13.162Z,280
2016-04-05T10:06:13.197Z,295
2016-04-05T10:07:13.199Z,300
2016-04-05T10:08:13.202Z,295
2016-04-05T10:09:13.220Z,290
2016-04-05T10:10:13.238Z,300
2016-04-05T10:11:13.256Z,295
2016-04-05T10:12:13.259Z,265
2016-04-05T10:13:13.262Z,275
2016-04-05T10:14:13.265Z,275
2016-04-05T10:15:13.347Z,275
2016-04-05T10:16:13.286Z,260
2016-04-05T10:17:13.258Z,245
2016-04-05T10:18:13.276Z,265
2016-04-05T10:19:13.310Z,255
2016-04-05T10:20:13.328Z,235
2016-04-05T10:21:13.299Z,235
2016-04-05T10:22:13.271Z,240
2016-04-05T10:23:13.274Z,255
2016-04-05T10:24:13.307Z,265
2016-04-05T10:25:13.342Z,285
2016-04-05T10:26:13.360Z,310
2016-04-05T10:27:13.300Z,315
2016-04-05T10:28:13.350Z,320
2016-04-05T10:29:13.305Z,310
2016-04-05T10:30:13.324Z,320
2016-04-05T10:31:13.232Z,320
2016-04-05T10:32:13.376Z,325
2016-04-05T10:33:13.348Z,315
2016-04-05T10:34:13.351Z,330
2016-04-05T10:35:13.384Z,320
2016-04-05T10:36:13.340Z,300
2016-04-05T10:37:13.420Z,305
2016-04-05T10:38:13.376Z,305
2016-04-05T10:39:13.379Z,300
2016-04-05T10:40:13.413Z,305
2016-04-05T10:41:13.447Z,295
2016-04-05T10:42:13.465Z,310
2016-04-05T10:43:13.389Z,325
2016-04-05T10:44:13.409Z,340
2016-04-05T10:45:13.427Z,345
2016-04-05T10:46:13.305Z,340
2016-04-05T10:47:13.291Z,335
2016-04-05T10:48:13.435Z,340
2016-04-05T10:49:13.469Z,305
2016-04-05T10:50:13.518Z,315
2016-04-05T10:51:13.443Z,315
2016-04-05T10:52:13.461Z,315
2016-04-05T10:53:13.494Z,315
2016-04-05T10:54:13.482Z,305
2016-04-05T10:55:13.484Z,310
2016-04-05T10:56:13.488Z,310
2016-04-05T10:57:13.505Z,310
2016-04-05T10:58:13.508Z,300
2016-04-05T10:59:13.480Z,275
2016-04-05T11:00:13.546Z,265
2016-04-05T11:01:13.532Z,280
2016-04-05T11:02:13.519Z,270
2016-04-05T11:03:13.521Z,255
2016-04-05T11:04:13.572Z,260
2016-04-05T11:05:13.543Z,295
2016-04-05T11:06:13.546Z,315
2016-04-05T11:07:13.549Z,320
2016-04-05T11:08:13.417Z,300
2016-04-05T11:09:13.536Z,295
2016-04-05T11:10:13.601Z,285
2016-04-05T11:11:13.557Z,280
2016-04-05T11:12:13.575Z,285
2016-04-05T11:13:13.562Z,335
2016-04-05T11:14:13.596Z,310
2016-04-05T11:15:13.662Z,335
2016-04-05T11:16:13.868Z,315
2016-04-05T11:17:13.589Z,320
2016-04-05T11:18:13.623Z,310
2016-04-05T11:19:13.579Z,300
2016-04-05T11:20:13.659Z,305
2016-04-05T11:21:13.615Z,300
2016-04-05T11:22:13.650Z,290
2016-04-05T11:23:13.653Z,285
2016-04-05T11:24:13.686Z,290
2016-04-05T11:25:13.657Z,300
2016-04-05T11:26:13.660Z,285
2016-04-05T11:27:13.835Z,270
2016-04-05T11:28:13.713Z,260
2016-04-05T11:29:13.669Z,240
2016-04-05T11:30:14.030Z,225
2016-04-05T11:31:13.564Z,220
2016-04-05T11:32:13.708Z,230
2016-04-05T11:33:13.710Z,250
2016-04-05T11:34:13.713Z,240
2016-04-05T11:35:13.747Z,245
2016-04-05T11:36:13.734Z,235
2016-04-05T11:37:13.690Z,245
2016-04-05T11:38:13.739Z,235
2016-04-05T11:39:13.726Z,225
2016-04-05T11:40:13.760Z,230
2016-04-05T11:41:13.762Z,235
2016-04-05T11:42:13.796Z,240
2016-04-05T11:43:13.767Z,235
2016-04-05T11:44:13.786Z,235
2016-04-05T11:45:13.789Z,225
2016-04-05T11:46:13.650Z,220
2016-04-05T11:47:13.842Z,200
2016-04-05T11:48:13.828Z,190
2016-04-05T11:49:13.831Z,200
2016-04-05T11:50:13.864Z,210
2016-04-05T11:51:13.818Z,205
2016-04-05T11:52:13.829Z,200
2016-04-05T11:53:13.791Z,200
2016-04-05T11:54:13.800Z,205
2016-04-05T11:55:13.841Z,210
2016-04-05T11:56:13.789Z,210
2016-04-05T11:57:13.805Z,205
2016-04-05T11:58:13.804Z,195
2016-04-05T11:59:13.803Z,190
2016-04-05T12:00:13.820Z,185
2016-04-05T12:01:13.819Z,185
2016-04-05T12:02:13.821Z,185
2016-04-05T12:03:13.807Z,180
2016-04-05T12:04:13.824Z,180
2016-04-05T12:05:13.903Z,175
2016-04-05T12:06:13.671Z,170
2016-04-05T12:07:13.845Z,165
2016-04-05T12:08:13.707Z,170
2016-04-05T12:09:13.865Z,170
2016-04-05T12:10:13.867Z,180
2016-04-05T12:11:13.854Z,185
2016-04-05T12:12:13.873Z,190
2016-04-05T12:13:13.891Z,185
2016-04-05T12:14:13.878Z,185
2016-04-05T12:15:13.943Z,180
2016-04-05T12:16:13.883Z,175
2016-04-05T12:17:13.886Z,170
2016-04-05T12:18:13.889Z,160
2016-04-05T12:19:13.908Z,160
2016-04-05T12:20:13.941Z,160
2016-04-05T12:21:13.897Z,160
2016-04-05T12:22:13.915Z,165
2016-04-05T12:23:13.918Z,160
2016-04-05T12:24:13.921Z,150
2016-04-05T12:25:13.939Z,145
2016-04-05T12:26:13.941Z,135
2016-04-05T12:27:13.944Z,130
2016-04-05T12:28:13.931Z,120
2016-04-05T12:29:13.950Z,115
2016-04-05T12:30:13.952Z,120
2016-04-05T12:31:13.955Z,125
2016-04-05T12:32:13.957Z,115
2016-04-05T12:33:13.991Z,115
2016-04-05T12:34:13.978Z,115
2016-04-05T12:35:14.075Z,115
2016-04-05T12:36:13.999Z,110
2016-04-05T12:37:14.002Z,100
2016-04-05T12:38:13.834Z,100
2016-04-05T12:39:14.024Z,100
2016-04-05T12:40:14.026Z,100
2016-04-05T12:41:13.997Z,100
2016-04-05T12:42:14.031Z,95
2016-04-05T12:43:13.893Z,85
2016-04-05T12:44:14.037Z,85
2016-04-05T12:45:14.040Z,85
2016-04-05T12:46:14.042Z,85
2016-04-05T12:47:14.060Z,90
2016-04-05T12:48:14.032Z,90
2016-04-05T12:49:14.067Z,85
2016-04-05T12:50:14.147Z,95
2016-04-05T12:51:14.072Z,105
2016-04-05T12:52:14.059Z,125
2016-04-05T12:53:14.108Z,140
2016-04-05T12:54:14.408Z,145
2016-04-05T12:55:14.113Z,150
2016-04-05T12:56:14.116Z,155
2016-04-05T12:57:14.087Z,170
2016-04-05T12:58:14.106Z,195
2016-04-05T12:59:14.140Z,210
2016-04-05T13:00:14.173Z,235
2016-04-05T13:01:14.098Z,255
2016-04-05T13:02:14.101Z,275
2016-04-05T13:03:14.103Z,295
2016-04-05T13:04:14.153Z,320
2016-04-05T13:05:14.171Z,340
2016-04-05T13:06:14.095Z,355
2016-04-05T13:07:14.129Z,365
2016-04-05T13:08:14.040Z,365
2016-04-05T13:09:14.135Z,350
2016-04-05T13:10:14.185Z,355
2016-04-05T13:11:14.203Z,360
2016-04-05T13:12:14.190Z,345
2016-04-05T13:13:14.178Z,325
2016-04-05T13:14:14.181Z,315
2016-04-05T13:15:14.261Z,305
2016-04-05T13:16:14.169Z,295
2016-04-05T13:17:14.251Z,285
2016-04-05T13:18:14.206Z,270
2016-04-05T13:19:14.194Z,260
2016-04-05T13:20:14.289Z,260
2016-04-05T13:21:14.214Z,275
2016-04-05T13:22:14.202Z,265
2016-04-05T13:23:14.251Z,255
2016-04-05T13:24:14.253Z,245
2016-04-05T13:25:14.272Z,245
2016-04-05T13:26:14.274Z,240
2016-04-05T13:27:14.262Z,230
2016-04-05T13:28:14.280Z,220
2016-04-05T13:29:14.266Z,200
2016-04-05T13:30:14.316Z,190
2016-04-05T13:31:14.272Z,195
2016-04-05T13:32:14.307Z,205
2016-04-05T13:33:14.294Z,215
2016-04-05T13:34:14.499Z,215
2016-04-05T13:35:14.362Z,205
2016-04-05T13:36:14.286Z,185
2016-04-05T13:37:14.304Z,165
2016-04-05T13:38:14.323Z,155
2016-04-05T13:39:14.325Z,150
2016-04-05T13:40:14.344Z,160
2016-04-05T13:41:14.331Z,165
2016-04-05T13:42:14.334Z,160
2016-04-05T13:43:14.320Z,165
2016-04-05T13:44:14.354Z,170
2016-04-05T13:45:14.420Z,165
2016-04-05T13:46:14.407Z,160
2016-04-05T13:47:14.363Z,150
2016-04-05T13:48:14.365Z,140
2016-04-05T13:49:14.384Z,140
2016-04-05T13:50:14.402Z,140
2016-04-05T13:51:14.373Z,130
2016-04-05T13:52:14.391Z,125
2016-04-05T13:53:14.411Z,115
2016-04-05T13:54:14.459Z,105
2016-04-05T13:55:14.431Z,95
2016-04-05T13:56:14.449Z,90
2016-04-05T13:57:14.405Z,85
2016-04-05T13:58:14.424Z,80
2016-04-05T13:59:14.269Z,70
2016-04-05T14:00:14.569Z,65
2016-04-05T14:01:14.432Z,55
2016-04-05T14:02:14.435Z,45
2016-04-05T14:03:14.437Z,40
2016-04-05T14:04:14.502Z,35
2016-04-05T14:05:14.551Z,35
2016-04-05T14:06:14.476Z,35
2016-04-05T14:07:14.494Z,35
2016-04-05T14:08:14.482Z,35